CheckWX is a tool to help pilots better visualize weather data.  It is not intended as a substitute for an official pre-flight weather briefing.

17:57:37 UTC

KSEP METAR
Stephenville Clark Regional Airport
Stephenville, Texas, USA
Current

23 mins ago

KSEP 171735Z AUTO 35012G18KT 10SM CLR 08/00 A3002 RMK AO2 T00751005
Observed
Feb-17 @ 17:35 UTC
Wind
  • 350° at 12 KTS
  • Gusting to 18 KTS
Visibility
10 SM
Flight Rules
VFR
Cloud Levels
  • Clear skies
Temperature
C / 46°F
Dewpoint
-1°C / 30°F
Humidity
53%
Altimeter
30.02" Hg
Pressure
1016.62 hPa
Previous

43 mins ago

KSEP 171715Z AUTO 36012G17KT 10SM CLR 07/00 A3002 RMK AO2 T00651003
Observed
Feb-17 @ 17:15 UTC
Wind
  • 360° at 12 KTS
  • Gusting to 17 KTS
Visibility
10 SM
Flight Rules
VFR
Cloud Levels
  • Clear skies
Temperature
C / 45°F
Dewpoint
-0°C / 32°F
Humidity
61%
Altimeter
30.02" Hg
Pressure
1016.62 hPa
Previous

1 hour ago

KSEP 171655Z AUTO 01012G18KT 10SM CLR 06/00 A3001 RMK AO2 T00590000
Observed
Feb-17 @ 16:55 UTC
Wind
  • 010° at 12 KTS
  • Gusting to 18 KTS
Visibility
10 SM
Flight Rules
VFR
Cloud Levels
  • Clear skies
Temperature
C / 43°F
Dewpoint
C / 32°F
Humidity
66%
Altimeter
30.01" Hg
Pressure
1016.22 hPa